Time;durP1;ratioP1;P1;durP2;ratioP2;P2;SDS_P1;SDS_P2;PMS_P1;PMS_P2;Temp;Humidity;BMP_temperature;BMP_pressure;BME280_temperature;BME280_humidity;BME280_pressure;Samples;Min_cycle;Max_cycle;Signal;HPM_P1;HPM_P2
2022/10/04 00:00:24;;;;;;;27.00;10.43;;;9.30;99.90;;;;;;5008662;28;20642;-65
2022/10/04 00:02:52;;;;;;;17.95;8.00;;;9.30;99.90;;;;;;5005599;28;20379;-65
2022/10/04 00:05:23;;;;;;;18.05;8.77;;;9.40;99.90;;;;;;5011109;28;20053;-66
2022/10/04 00:07:54;;;;;;;19.90;8.40;;;9.50;99.90;;;;;;5009733;28;20029;-66
2022/10/04 00:10:27;;;;;;;14.80;8.82;;;9.60;99.90;;;;;;5007473;28;20080;-65
2022/10/04 00:13:03;;;;;;;23.20;8.88;;;9.60;99.90;;;;;;5006455;28;20048;-65
2022/10/04 00:15:36;;;;;;;23.58;8.25;;;9.60;99.90;;;;;;4995177;28;20037;-65
2022/10/04 00:18:10;;;;;;;19.52;8.48;;;9.60;99.90;;;;;;5008671;28;20029;-66
2022/10/04 00:20:49;;;;;;;;;;;9.60;99.90;;;;;;5007309;28;20464;-65
2022/10/04 00:23:23;;;;;;;17.58;8.30;;;9.60;99.90;;;;;;5008217;28;20008;-65
2022/10/04 00:26:00;;;;;;;;;;;9.60;99.90;;;;;;5004826;28;20400;-66
2022/10/04 00:28:34;;;;;;;23.45;9.65;;;9.60;99.90;;;;;;5011410;28;19985;-64
2022/10/04 00:31:10;;;;;;;;;;;9.50;99.90;;;;;;5006311;28;20164;-65
2022/10/04 00:33:42;;;;;;;14.70;8.05;;;9.50;99.90;;;;;;5009036;28;20354;-65
2022/10/04 00:36:25;;;;;;;20.35;9.10;;;9.50;99.90;;;;;;5001594;28;20032;-66
2022/10/04 00:39:24;;;;;;;22.50;8.43;;;9.50;99.90;;;;;;5007204;28;20432;-65
2022/10/04 00:41:49;;;;;;;23.52;8.88;;;9.60;99.90;;;;;;5003776;28;20113;-63
2022/10/04 00:44:21;;;;;;;14.30;8.23;;;9.40;99.90;;;;;;5010224;28;20117;-66
2022/10/04 00:46:48;;;;;;;16.67;8.68;;;9.40;99.90;;;;;;5011940;28;20022;-66
2022/10/04 00:49:17;;;;;;;14.60;8.05;;;9.40;99.90;;;;;;4998961;28;20026;-65
2022/10/04 00:51:49;;;;;;;24.90;8.85;;;9.50;99.90;;;;;;5001036;28;20487;-65
2022/10/04 00:54:35;;;;;;;16.73;8.30;;;9.40;99.90;;;;;;4999914;28;20503;-65
2022/10/04 00:57:20;;;;;;;15.30;7.93;;;9.40;99.90;;;;;;5003167;28;20408;-65
2022/10/04 00:59:53;;;;;;;23.35;9.07;;;9.50;99.90;;;;;;5002733;28;20113;-63
2022/10/04 01:02:20;;;;;;;20.08;9.00;;;9.50;99.90;;;;;;5003697;28;20030;-65
2022/10/04 01:05:03;;;;;;;16.85;8.63;;;9.40;99.90;;;;;;5004169;28;20026;-67
2022/10/04 01:07:41;;;;;;;17.13;9.30;;;9.40;99.90;;;;;;5012341;28;20052;-66
2022/10/04 01:10:17;;;;;;;20.52;8.77;;;9.40;99.90;;;;;;5003069;28;20022;-65
2022/10/04 01:12:46;;;;;;;20.10;8.75;;;9.40;99.90;;;;;;5001496;28;20078;-66
2022/10/04 01:15:16;;;;;;;23.77;8.95;;;9.30;99.90;;;;;;5008916;28;20399;-66
2022/10/04 01:18:13;;;;;;;23.52;9.82;;;9.30;99.90;;;;;;5009004;28;20085;-66
2022/10/04 01:20:48;;;;;;;20.25;8.07;;;9.20;99.90;;;;;;5015500;28;20100;-65
2022/10/04 01:23:37;;;;;;;24.33;9.02;;;9.20;99.90;;;;;;5010286;28;20036;-66
2022/10/04 01:26:25;;;;;;;19.13;9.27;;;9.30;99.90;;;;;;5016688;28;20018;-65
2022/10/04 01:29:12;;;;;;;20.77;9.25;;;9.30;99.90;;;;;;5006442;28;20058;-66
2022/10/04 01:31:41;;;;;;;23.08;8.85;;;9.30;99.90;;;;;;5010359;28;20052;-66
2022/10/04 01:34:10;;;;;;;26.65;8.93;;;9.30;99.90;;;;;;5001684;28;20033;-65
2022/10/04 01:36:36;;;;;;;23.15;8.85;;;9.30;99.90;;;;;;5011126;28;20105;-66
2022/10/04 01:39:03;;;;;;;18.55;8.82;;;9.30;99.90;;;;;;5008307;28;20117;-65
2022/10/04 01:41:50;;;;;;;20.35;9.23;;;9.40;99.90;;;;;;5011527;28;20076;-66
2022/10/04 01:44:25;;;;;;;13.45;8.57;;;9.40;99.90;;;;;;5008022;28;20026;-65
2022/10/04 01:46:52;;;;;;;18.75;8.73;;;9.50;99.90;;;;;;5004711;28;20026;-67
2022/10/04 01:49:22;;;;;;;26.80;8.30;;;9.50;99.90;;;;;;5012923;28;20033;-65
2022/10/04 01:52:06;;;;;;;18.83;8.82;;;9.50;99.90;;;;;;5009812;28;20030;-66
2022/10/04 01:54:42;;;;;;;21.17;8.70;;;9.50;99.90;;;;;;5004430;28;20103;-64
2022/10/04 01:57:18;;;;;;;25.83;8.77;;;9.50;99.90;;;;;;5009179;28;20089;-65
2022/10/04 02:00:00;;;;;;;20.00;8.82;;;9.40;99.90;;;;;;5011045;28;20030;-65
2022/10/04 02:02:33;;;;;;;15.32;8.00;;;9.50;99.90;;;;;;5008725;28;20025;-66
2022/10/04 02:05:00;;;;;;;16.92;7.95;;;9.50;99.90;;;;;;5008103;28;21020;-66
2022/10/04 02:07:30;;;;;;;31.17;7.95;;;9.50;99.90;;;;;;5009066;28;20026;-67
2022/10/04 02:10:01;;;;;;;13.75;7.95;;;9.50;99.90;;;;;;5006949;28;20019;-67
2022/10/04 02:12:32;;;;;;;17.98;8.20;;;9.50;99.90;;;;;;5006837;28;20026;-66
2022/10/04 02:15:00;;;;;;;20.52;8.32;;;9.50;99.90;;;;;;5009604;28;20026;-65
2022/10/04 02:17:29;;;;;;;17.67;8.52;;;9.50;99.90;;;;;;5014961;28;20029;-66
2022/10/04 02:19:56;;;;;;;23.20;9.40;;;9.50;99.90;;;;;;5005866;28;20408;-67
2022/10/04 02:22:23;;;;;;;19.75;8.38;;;9.40;99.90;;;;;;5005146;28;20125;-66
2022/10/04 02:24:51;;;;;;;17.42;8.02;;;9.40;99.90;;;;;;5013510;28;20041;-65
2022/10/04 02:27:17;;;;;;;17.83;8.38;;;9.40;99.90;;;;;;5021103;28;20018;-66
2022/10/04 02:29:42;;;;;;;16.95;8.60;;;9.30;99.90;;;;;;5010285;28;20034;-66
2022/10/04 02:34:54;;;;;;;20.77;8.27;;;9.30;99.90;;;;;;5003168;28;20076;-67
2022/10/04 02:37:25;;;;;;;24.35;8.40;;;9.30;99.90;;;;;;5016239;28;20046;-64
2022/10/04 02:40:07;;;;;;;20.35;8.93;;;9.30;99.90;;;;;;5004989;28;20037;-65
2022/10/04 02:42:38;;;;;;;22.60;8.55;;;9.30;99.90;;;;;;5027359;22;20096;-63
2022/10/04 02:45:21;;;;;;;16.15;9.23;;;9.20;99.90;;;;;;5027729;28;20021;-63
2022/10/04 02:47:51;;;;;;;15.95;8.80;;;9.20;99.90;;;;;;5026744;28;20029;-63
2022/10/04 02:50:34;;;;;;;16.65;8.55;;;9.10;99.90;;;;;;5026971;28;20075;-60
2022/10/04 02:53:28;;;;;;;18.63;8.68;;;9.10;99.90;;;;;;5028399;28;20079;-62
2022/10/04 02:55:55;;;;;;;18.60;9.52;;;8.90;99.90;;;;;;5023866;28;20037;-60
2022/10/04 02:58:22;;;;;;;25.88;8.52;;;9.00;99.90;;;;;;5027328;28;20068;-60
2022/10/04 03:00:53;;;;;;;22.85;8.95;;;9.00;99.90;;;;;;5029975;28;20025;-60
2022/10/04 03:03:36;;;;;;;14.77;7.97;;;8.90;99.90;;;;;;5024996;28;20109;-60
2022/10/04 03:06:14;;;;;;;23.70;8.65;;;9.00;99.90;;;;;;5024716;28;20885;-59
2022/10/04 03:08:42;;;;;;;19.58;8.35;;;9.00;99.90;;;;;;5024853;28;20029;-62
2022/10/04 03:11:10;;;;;;;14.98;7.97;;;9.00;99.90;;;;;;5027251;28;20025;-59
2022/10/04 03:13:40;;;;;;;19.58;9.02;;;9.00;99.90;;;;;;5028580;28;20485;-56
2022/10/04 03:16:06;;;;;;;20.75;8.20;;;9.10;99.90;;;;;;5028514;28;20041;-58
2022/10/04 03:18:33;;;;;;;21.52;9.45;;;9.10;99.90;;;;;;5029222;28;20056;-58
2022/10/04 03:21:06;;;;;;;19.40;7.78;;;9.20;99.90;;;;;;5028989;28;20026;-60
2022/10/04 03:23:32;;;;;;;18.27;7.90;;;9.20;99.90;;;;;;5028886;28;20455;-61
2022/10/04 03:26:25;;;;;;;14.50;7.43;;;9.20;99.90;;;;;;5029784;28;20025;-60
2022/10/04 03:28:51;;;;;;;16.13;8.07;;;9.20;99.90;;;;;;5023674;28;20488;-61
2022/10/04 03:31:18;;;;;;;20.20;8.15;;;9.20;99.90;;;;;;5029809;28;20061;-59
2022/10/04 03:33:45;;;;;;;21.77;8.30;;;9.20;99.90;;;;;;5023634;28;20021;-60
2022/10/04 03:36:15;;;;;;;21.15;7.63;;;9.20;99.90;;;;;;5029701;28;20037;-61
2022/10/04 03:38:42;;;;;;;26.45;7.50;;;9.20;99.90;;;;;;5024490;28;20052;-61
2022/10/04 03:41:10;;;;;;;14.23;6.65;;;9.20;99.90;;;;;;5027074;28;20025;-60
2022/10/04 03:43:42;;;;;;;16.52;8.05;;;9.20;99.90;;;;;;5027306;28;20026;-61
2022/10/04 03:46:09;;;;;;;15.55;7.35;;;9.20;99.90;;;;;;5026058;28;20125;-60
2022/10/04 03:48:42;;;;;;;12.85;7.32;;;9.10;99.90;;;;;;5027176;28;20029;-61
2022/10/04 03:51:15;;;;;;;27.90;6.78;;;9.10;99.90;;;;;;5026477;28;20021;-59
2022/10/04 03:53:47;;;;;;;14.00;7.20;;;9.10;99.90;;;;;;5027238;28;20040;-61
2022/10/04 03:56:34;;;;;;;17.63;7.43;;;9.10;99.90;;;;;;5020030;28;20053;-61
2022/10/04 03:59:04;;;;;;;14.80;8.05;;;9.10;99.90;;;;;;5025193;28;20021;-60
2022/10/04 04:01:39;;;;;;;19.92;8.20;;;9.00;99.90;;;;;;5027995;28;20025;-61
2022/10/04 04:04:30;;;;;;;27.05;8.25;;;9.00;99.90;;;;;;5026352;28;20503;-60
2022/10/04 04:07:09;;;;;;;26.33;7.78;;;9.10;99.90;;;;;;5026558;28;20071;-59
2022/10/04 04:09:34;;;;;;;18.48;8.02;;;8.90;99.90;;;;;;5023619;28;20091;-61
2022/10/04 04:12:01;;;;;;;11.38;7.25;;;8.80;99.90;;;;;;5023712;28;20026;-60
2022/10/04 04:14:27;;;;;;;23.63;8.27;;;8.80;99.90;;;;;;5025235;28;20727;-60
2022/10/04 04:17:15;;;;;;;14.20;7.40;;;8.80;99.90;;;;;;5026930;28;20026;-61
2022/10/04 04:19:41;;;;;;;24.58;8.77;;;8.70;99.90;;;;;;5022120;28;20029;-60
2022/10/04 04:22:15;;;;;;;15.15;7.80;;;8.70;99.90;;;;;;5026989;28;20124;-61
2022/10/04 04:24:42;;;;;;;16.98;8.10;;;8.70;99.90;;;;;;5008987;28;20084;-61
2022/10/04 04:27:09;;;;;;;12.90;7.57;;;8.70;99.90;;;;;;5025974;28;20030;-61
2022/10/04 04:29:50;;;;;;;18.67;7.70;;;8.70;99.90;;;;;;5024149;28;20502;-61
2022/10/04 04:32:17;;;;;;;13.57;8.43;;;8.70;99.90;;;;;;5027168;28;20458;-62
2022/10/04 04:34:57;;;;;;;18.02;7.80;;;8.70;99.90;;;;;;5026996;28;20104;-59
2022/10/04 04:37:23;;;;;;;13.52;6.85;;;8.70;99.90;;;;;;5026814;28;20038;-60
2022/10/04 04:39:53;;;;;;;31.92;11.18;;;8.60;99.90;;;;;;5030385;28;20029;-60
2022/10/04 04:42:30;;;;;;;15.38;8.48;;;8.60;99.90;;;;;;5029337;28;20498;-60
2022/10/04 04:45:03;;;;;;;14.48;8.02;;;8.50;99.90;;;;;;5026536;28;20030;-61
2022/10/04 04:47:35;;;;;;;18.83;7.93;;;8.50;99.90;;;;;;5030392;28;20112;-59
2022/10/04 04:50:26;;;;;;;17.48;8.35;;;8.50;99.90;;;;;;5029692;28;20100;-60
2022/10/04 04:52:59;;;;;;;20.17;8.13;;;8.50;99.90;;;;;;5027126;28;20022;-62
2022/10/04 04:55:32;;;;;;;23.35;8.95;;;8.60;99.90;;;;;;5027038;28;20029;-61
2022/10/04 04:57:58;;;;;;;15.82;7.70;;;8.50;99.90;;;;;;5028116;28;20021;-61
2022/10/04 05:00:34;;;;;;;18.10;8.25;;;8.60;99.90;;;;;;5011822;28;20109;-60
2022/10/04 05:03:02;;;;;;;16.50;8.07;;;8.60;99.90;;;;;;5024846;28;20017;-61
2022/10/04 05:05:34;;;;;;;18.20;8.57;;;8.50;99.90;;;;;;5030539;28;20022;-60
2022/10/04 05:08:28;;;;;;;16.85;9.50;;;8.50;99.90;;;;;;5029367;28;20036;-61
2022/10/04 05:10:56;;;;;;;17.75;9.35;;;8.60;99.90;;;;;;5029363;28;20021;-60
2022/10/04 05:13:29;;;;;;;18.10;8.80;;;8.60;99.90;;;;;;5030472;28;20048;-58
2022/10/04 05:15:58;;;;;;;19.85;10.27;;;8.60;99.90;;;;;;5026061;28;20112;-61
2022/10/04 05:18:32;;;;;;;21.17;9.20;;;8.60;99.90;;;;;;5026106;28;20125;-62
2022/10/04 05:21:05;;;;;;;23.25;9.63;;;8.60;99.90;;;;;;5028588;28;20048;-61
2022/10/04 05:23:33;;;;;;;22.35;9.75;;;8.60;99.90;;;;;;5032221;28;20025;-61
2022/10/04 05:26:01;;;;;;;27.83;12.27;;;8.70;99.90;;;;;;5036556;28;20080;-59
2022/10/04 05:28:27;;;;;;;20.33;10.60;;;8.80;99.90;;;;;;5030460;28;20029;-60
2022/10/04 05:30:52;;;;;;;23.27;12.02;;;8.80;99.90;;;;;;5028900;28;20395;-58
2022/10/04 05:33:35;;;;;;;24.17;10.93;;;8.80;99.90;;;;;;5031551;28;20040;-59
2022/10/04 05:36:10;;;;;;;26.17;10.65;;;8.80;99.90;;;;;;5011305;28;20474;-61
2022/10/04 05:38:49;;;;;;;28.67;12.02;;;8.90;99.90;;;;;;5027005;28;20048;-60
2022/10/04 05:41:15;;;;;;;26.65;10.82;;;8.90;99.90;;;;;;5031328;28;20033;-59
2022/10/04 05:43:45;;;;;;;28.52;11.48;;;8.90;99.90;;;;;;5029052;28;20082;-60
2022/10/04 05:46:25;;;;;;;34.75;12.38;;;8.90;99.90;;;;;;5026577;28;20590;-58
2022/10/04 05:48:57;;;;;;;31.98;12.50;;;8.90;99.90;;;;;;5028490;28;20032;-60
2022/10/04 05:51:25;;;;;;;30.25;13.13;;;9.00;99.90;;;;;;5028329;28;20030;-59
2022/10/04 05:53:51;;;;;;;31.95;12.27;;;9.00;99.90;;;;;;5027927;28;20084;-59
2022/10/04 05:56:49;;;;;;;32.20;12.32;;;9.00;99.90;;;;;;5028829;28;20519;-61
2022/10/04 05:59:39;;;;;;;26.20;12.23;;;9.00;99.90;;;;;;5029471;28;20111;-61
2022/10/04 06:02:53;;;;;;;26.23;12.85;;;9.00;99.90;;;;;;5026813;28;20100;-60
2022/10/04 06:05:26;;;;;;;33.92;12.30;;;9.00;99.90;;;;;;4952799;28;20154;-61
2022/10/04 06:08:14;;;;;;;28.83;13.20;;;9.10;99.90;;;;;;5029698;28;20588;-60
2022/10/04 06:11:13;;;;;;;32.17;13.20;;;9.10;99.90;;;;;;5026381;28;20414;-60
2022/10/04 06:14:12;;;;;;;27.10;12.15;;;9.20;99.90;;;;;;5027377;28;20033;-59
2022/10/04 06:16:37;;;;;;;35.40;13.98;;;9.20;99.90;;;;;;5029765;28;20053;-61
2022/10/04 06:19:05;;;;;;;30.70;13.05;;;9.20;99.90;;;;;;5024937;28;20095;-59
2022/10/04 06:21:38;;;;;;;35.50;14.23;;;9.20;99.90;;;;;;5029661;28;20030;-59
2022/10/04 06:24:13;;;;;;;35.60;13.65;;;9.20;99.90;;;;;;5030727;28;20032;-59
2022/10/04 06:26:43;;;;;;;37.10;14.38;;;9.20;99.90;;;;;;5030218;28;20018;-60
2022/10/04 06:29:19;;;;;;;29.92;14.02;;;9.20;99.90;;;;;;5026076;28;20112;-61
2022/10/04 06:32:09;;;;;;;36.08;14.23;;;9.30;99.90;;;;;;5027791;28;20164;-59
2022/10/04 06:34:59;;;;;;;33.75;14.70;;;9.30;99.90;;;;;;5028546;28;20505;-57
2022/10/04 06:37:57;;;;;;;31.67;15.10;;;9.20;99.90;;;;;;5028679;28;20144;-59
2022/10/04 06:41:00;;;;;;;35.53;15.02;;;9.20;99.90;;;;;;5026166;28;20044;-61
2022/10/04 06:44:01;;;;;;;40.05;14.15;;;9.20;99.90;;;;;;5028854;28;20091;-59
2022/10/04 06:46:38;;;;;;;40.45;15.73;;;9.30;99.90;;;;;;5028229;28;20562;-60
2022/10/04 06:49:43;;;;;;;35.08;15.00;;;9.30;99.90;;;;;;5010022;28;20403;-59
2022/10/04 06:52:39;;;;;;;32.40;14.70;;;9.40;99.90;;;;;;5030030;28;20483;-61
2022/10/04 06:55:26;;;;;;;42.78;14.90;;;9.40;99.90;;;;;;5025929;28;20033;-61
2022/10/04 06:57:58;;;;;;;29.17;13.45;;;9.50;99.90;;;;;;5028575;28;20844;-62
2022/10/04 07:00:26;;;;;;;30.65;15.00;;;9.50;99.90;;;;;;5026401;28;20037;-61
2022/10/04 07:03:12;;;;;;;28.58;12.93;;;9.60;99.90;;;;;;5027823;28;20032;-61
2022/10/04 07:05:47;;;;;;;29.17;11.85;;;9.60;99.90;;;;;;5008517;28;20029;-60
2022/10/04 07:08:33;;;;;;;25.13;12.80;;;9.70;99.90;;;;;;5024155;28;20026;-61
2022/10/04 07:11:22;;;;;;;30.70;12.65;;;9.80;99.90;;;;;;5026037;28;20061;-60
2022/10/04 07:13:59;;;;;;;25.90;11.95;;;9.80;99.90;;;;;;5023042;28;20041;-61
2022/10/04 07:16:34;;;;;;;27.75;12.20;;;9.80;99.90;;;;;;5026375;28;20036;-60
2022/10/04 07:19:30;;;;;;;24.75;11.02;;;9.90;99.90;;;;;;5025609;28;20511;-61
2022/10/04 07:22:10;;;;;;;24.50;11.35;;;10.00;99.90;;;;;;5027021;28;20017;-62
2022/10/04 07:25:04;;;;;;;20.77;11.20;;;10.10;99.90;;;;;;5026455;28;20021;-61
2022/10/04 07:29:19;;;;;;;21.38;11.43;;;10.10;99.90;;;;;;5028003;28;20033;-60
2022/10/04 07:31:15;;;;;;;28.42;10.85;;;10.20;99.90;;;;;;5025457;28;20065;-62
2022/10/04 07:33:49;;;;;;;28.90;11.23;;;10.10;99.90;;;;;;5010599;28;20033;-61
2022/10/04 07:36:28;;;;;;;24.88;9.82;;;10.30;99.90;;;;;;5027465;28;20108;-62
2022/10/04 07:39:00;;;;;;;24.63;11.05;;;10.30;99.90;;;;;;5024789;28;20033;-60
2022/10/04 07:41:26;;;;;;;24.67;11.68;;;10.40;99.90;;;;;;5023883;28;20025;-61
2022/10/04 07:43:55;;;;;;;23.02;11.18;;;10.50;99.90;;;;;;5024583;28;20324;-60
2022/10/04 07:46:43;;;;;;;23.13;11.57;;;10.50;99.90;;;;;;5027593;28;20480;-60
2022/10/04 07:49:18;;;;;;;18.85;10.75;;;10.60;99.90;;;;;;5023122;28;20032;-61
2022/10/04 07:51:55;;;;;;;30.23;10.88;;;10.60;99.90;;;;;;5025819;28;20364;-60
2022/10/04 07:54:55;;;;;;;19.10;10.43;;;10.70;99.90;;;;;;5027932;28;20510;-60
2022/10/04 07:57:45;;;;;;;23.38;11.48;;;10.70;99.90;;;;;;5024446;28;20037;-58
2022/10/04 08:00:21;;;;;;;25.35;10.93;;;10.90;99.90;;;;;;5018946;28;20025;-55
2022/10/04 08:03:24;;;;;;;22.00;11.45;;;11.00;99.90;;;;;;5024377;28;20022;-54
2022/10/04 08:06:11;;;;;;;20.23;10.60;;;10.90;99.90;;;;;;5023725;28;20029;-57
2022/10/04 08:09:06;;;;;;;19.48;10.15;;;10.90;99.90;;;;;;5034546;28;20033;-58
2022/10/04 08:11:53;;;;;;;19.35;9.40;;;11.00;99.90;;;;;;5026595;28;20075;-56
2022/10/04 08:14:56;;;;;;;18.95;10.48;;;11.00;99.90;;;;;;5025750;28;20150;-57
2022/10/04 08:17:46;;;;;;;21.67;10.15;;;11.00;99.90;;;;;;4954320;28;20051;-56
2022/10/04 08:20:12;;;;;;;20.17;10.38;;;11.00;99.90;;;;;;5024604;28;20026;-57
2022/10/04 08:23:07;;;;;;;22.30;9.40;;;11.00;99.90;;;;;;5026333;28;20025;-57
2022/10/04 08:25:50;;;;;;;18.23;10.27;;;11.00;99.90;;;;;;5027229;28;20160;-56
2022/10/04 08:32:13;;;;;;;19.98;9.40;;;11.10;99.90;;;;;;5022403;28;20565;-56
2022/10/04 08:35:08;;;;;;;20.20;9.15;;;11.20;99.90;;;;;;4964474;28;20034;-55
2022/10/04 08:37:59;;;;;;;17.63;9.63;;;11.20;99.90;;;;;;5022083;28;20030;-58
2022/10/04 08:40:40;;;;;;;16.90;8.30;;;11.20;99.90;;;;;;5025558;28;21672;-58
2022/10/04 08:43:30;;;;;;;17.77;8.52;;;11.30;99.90;;;;;;5024194;28;20120;-59
2022/10/04 08:46:31;;;;;;;16.80;9.13;;;11.40;99.90;;;;;;5043501;23;20048;-55
2022/10/04 08:49:11;;;;;;;18.35;9.70;;;11.40;99.90;;;;;;5043189;28;20056;-56
2022/10/04 08:51:54;;;;;;;18.17;8.98;;;11.50;99.90;;;;;;5042709;28;20024;-57
2022/10/04 08:54:47;;;;;;;15.80;9.05;;;11.60;99.90;;;;;;5046304;28;20025;-56
2022/10/04 08:57:34;;;;;;;15.85;8.05;;;11.70;99.90;;;;;;5042402;28;20104;-54
2022/10/04 09:00:30;;;;;;;18.35;8.23;;;11.80;99.90;;;;;;5040587;28;20065;-56
2022/10/04 09:03:14;;;;;;;17.60;8.90;;;11.90;99.90;;;;;;5042956;28;20028;-54
2022/10/04 09:05:55;;;;;;;21.33;8.05;;;12.00;99.90;;;;;;5046524;28;20032;-54
2022/10/04 09:08:27;;;;;;;16.00;9.02;;;12.20;99.90;;;;;;5048054;28;20060;-57
2022/10/04 09:11:20;;;;;;;16.63;8.25;;;12.30;99.90;;;;;;5043713;28;20033;-57
2022/10/04 09:13:59;;;;;;;12.70;7.72;;;12.30;99.90;;;;;;5040455;28;20070;-54
2022/10/04 09:16:43;;;;;;;21.38;7.53;;;12.50;99.90;;;;;;5044542;28;20026;-58
2022/10/04 09:19:22;;;;;;;13.35;7.63;;;12.60;99.90;;;;;;5044044;28;20058;-57
2022/10/04 09:22:23;;;;;;;13.57;7.68;;;12.70;99.90;;;;;;5043185;28;20032;-57
2022/10/04 09:25:15;;;;;;;12.98;7.15;;;12.90;99.90;;;;;;5047045;28;20033;-57
2022/10/04 09:27:54;;;;;;;13.85;7.07;;;12.90;99.90;;;;;;5051306;28;20025;-57
2022/10/04 09:30:36;;;;;;;22.30;7.80;;;13.00;99.90;;;;;;5056998;28;20112;-58
2022/10/04 09:33:02;;;;;;;13.40;6.78;;;13.20;99.90;;;;;;5052714;28;20037;-56
2022/10/04 09:36:05;;;;;;;13.25;6.68;;;13.30;99.90;;;;;;5047470;28;20036;-57
2022/10/04 09:38:39;;;;;;;13.10;6.18;;;13.50;99.90;;;;;;5050142;28;20085;-56
2022/10/04 09:41:05;;;;;;;14.40;6.30;;;13.60;99.90;;;;;;5044936;28;20021;-55
2022/10/04 09:43:33;;;;;;;13.65;6.53;;;13.80;99.90;;;;;;5052551;28;20028;-57
2022/10/04 09:46:19;;;;;;;8.75;5.97;;;13.90;99.90;;;;;;5051851;28;20040;-56
2022/10/04 09:49:12;;;;;;;17.67;5.43;;;14.10;99.90;;;;;;5047809;28;20116;-58
2022/10/04 09:52:03;;;;;;;12.50;5.28;;;14.30;99.90;;;;;;5048713;28;20029;-57
2022/10/04 09:54:48;;;;;;;8.65;5.30;;;14.50;99.90;;;;;;5051372;28;20052;-55
2022/10/04 09:57:37;;;;;;;;;;;14.50;99.90;;;;;;5049957;28;20545;-55
2022/10/04 10:00:47;;;;;;;12.90;4.85;;;14.70;99.90;;;;;;5027487;28;19915;-57
2022/10/04 10:03:25;;;;;;;10.00;4.60;;;14.90;99.90;;;;;;5000283;28;20567;-58
2022/10/04 10:06:06;;;;;;;13.25;5.63;;;15.10;99.90;;;;;;4997863;28;20030;-55
2022/10/04 10:08:53;;;;;;;10.88;4.63;;;15.10;99.90;;;;;;5038892;28;20040;-55
2022/10/04 10:14:59;;;;;;;15.90;5.40;;;15.40;99.90;;;;;;5049003;28;20517;-56
2022/10/04 10:17:50;;;;;;;12.23;5.13;;;15.50;99.90;;;;;;5044679;28;20043;-57
2022/10/04 10:20:58;;;;;;;9.88;5.32;;;15.50;99.90;;;;;;5050803;28;20057;-55
2022/10/04 10:23:46;;;;;;;9.65;4.82;;;15.60;99.90;;;;;;5046630;28;20059;-53
2022/10/04 10:26:34;;;;;;;7.72;4.35;;;15.70;99.90;;;;;;5047441;28;20086;-55
2022/10/04 10:29:24;;;;;;;13.55;5.05;;;15.80;99.90;;;;;;5047649;28;20021;-53
2022/10/04 10:31:50;;;;;;;13.10;4.43;;;15.70;99.90;;;;;;5046927;28;20037;-55
2022/10/04 10:34:46;;;;;;;14.27;4.55;;;15.80;99.90;;;;;;5050938;28;20032;-57
2022/10/04 10:37:21;;;;;;;9.90;4.18;;;16.00;99.90;;;;;;5051059;28;20037;-55
2022/10/04 10:39:59;;;;;;;11.68;4.00;;;16.10;99.90;;;;;;5049010;28;20116;-56
2022/10/04 10:42:48;;;;;;;10.60;3.78;;;16.30;99.90;;;;;;5036031;28;20475;-56
2022/10/04 10:45:36;;;;;;;11.20;4.07;;;16.60;99.90;;;;;;5051046;28;20025;-57
2022/10/04 10:48:12;;;;;;;8.30;3.72;;;16.80;99.90;;;;;;5044482;28;20107;-57
2022/10/04 10:51:09;;;;;;;12.90;4.28;;;16.90;99.90;;;;;;5044481;28;20063;-55
2022/10/04 10:53:41;;;;;;;8.85;3.67;;;16.90;99.90;;;;;;5050717;28;20031;-58
2022/10/04 10:56:19;;;;;;;8.30;3.60;;;17.00;99.90;;;;;;5049729;28;20021;-55
2022/10/04 10:59:10;;;;;;;7.28;3.47;;;17.20;99.90;;;;;;5041998;28;20033;-57
2022/10/04 11:02:11;;;;;;;10.30;3.67;;;17.40;99.90;;;;;;5046219;28;20033;-59
2022/10/04 11:04:55;;;;;;;11.00;4.05;;;17.60;99.90;;;;;;5042299;28;20044;-59
2022/10/04 11:07:42;;;;;;;9.18;3.90;;;17.80;99.90;;;;;;5045318;28;20394;-58
2022/10/04 11:10:25;;;;;;;13.23;3.20;;;18.10;99.90;;;;;;5046177;28;20042;-58
2022/10/04 11:13:12;;;;;;;6.35;3.05;;;18.00;99.90;;;;;;5049015;28;20029;-59
2022/10/04 11:16:08;;;;;;;12.27;3.33;;;18.20;99.90;;;;;;5050076;28;20100;-58
2022/10/04 11:18:55;;;;;;;6.90;2.95;;;18.40;99.90;;;;;;5050345;28;20115;-59
2022/10/04 11:21:38;;;;;;;5.93;3.35;;;18.50;99.90;;;;;;5048043;28;20065;-58
2022/10/04 11:24:28;;;;;;;6.63;3.00;;;18.60;99.90;;;;;;5050019;28;20039;-58
2022/10/04 11:27:17;;;;;;;11.13;3.90;;;18.80;99.90;;;;;;5046279;28;20486;-58
2022/10/04 11:30:23;;;;;;;10.90;2.92;;;18.90;99.90;;;;;;5049150;28;20024;-59
2022/10/04 11:33:20;;;;;;;17.33;4.95;;;18.90;99.90;;;;;;5048730;28;20402;-59
2022/10/04 11:36:04;;;;;;;10.50;2.95;;;19.20;99.90;;;;;;5048796;28;20021;-59
2022/10/04 11:38:46;;;;;;;7.10;3.33;;;19.20;99.90;;;;;;5047191;28;20032;-57
2022/10/04 11:41:29;;;;;;;12.18;3.10;;;19.40;99.90;;;;;;5049792;28;20787;-59
2022/10/04 11:44:23;;;;;;;6.97;2.90;;;19.50;99.90;;;;;;5047743;28;20021;-59
2022/10/04 11:47:07;;;;;;;5.05;3.17;;;19.40;99.90;;;;;;5049628;28;20402;-58
2022/10/04 11:49:49;;;;;;;7.97;3.58;;;19.60;99.90;;;;;;5048496;28;20048;-57
2022/10/04 11:52:21;;;;;;;10.98;3.40;;;19.60;99.90;;;;;;5048285;28;20029;-58
2022/10/04 11:55:07;;;;;;;9.57;2.97;;;19.70;99.90;;;;;;5047633;28;20051;-56
2022/10/04 11:57:44;;;;;;;9.73;2.88;;;20.20;99.90;;;;;;5045430;28;20028;-57
2022/10/04 12:00:19;;;;;;;9.10;2.80;;;20.40;99.90;;;;;;5048492;28;20032;-59
2022/10/04 12:02:50;;;;;;;7.13;2.63;;;20.30;99.90;;;;;;5046490;28;20025;-57
2022/10/04 12:05:22;;;;;;;12.13;3.15;;;20.60;99.90;;;;;;5036417;28;20056;-54
2022/10/04 12:08:19;;;;;;;12.95;3.03;;;20.60;99.90;;;;;;5040398;28;20028;-57
2022/10/04 12:11:04;;;;;;;5.88;2.80;;;20.30;99.90;;;;;;5043814;28;20041;-58
2022/10/04 12:13:46;;;;;;;7.95;2.65;;;20.60;99.90;;;;;;5047614;28;20078;-56
2022/10/04 12:16:31;;;;;;;5.03;3.00;;;20.80;99.90;;;;;;5047131;28;20025;-59
2022/10/04 12:19:27;;;;;;;16.95;2.80;;;20.70;99.90;;;;;;5045885;28;20024;-59
2022/10/04 12:22:18;;;;;;;10.43;3.00;;;21.00;99.90;;;;;;5047473;28;20048;-57
2022/10/04 12:25:08;;;;;;;8.85;3.25;;;20.40;99.90;;;;;;5046259;28;20028;-59
2022/10/04 12:27:42;;;;;;;8.90;2.72;;;20.20;99.90;;;;;;5046430;28;20513;-59
2022/10/04 12:30:19;;;;;;;12.68;2.88;;;20.30;99.90;;;;;;5043823;28;20438;-58
2022/10/04 12:33:13;;;;;;;11.10;2.45;;;20.30;99.90;;;;;;5042842;28;20059;-56
2022/10/04 12:36:02;;;;;;;12.27;2.85;;;20.70;99.90;;;;;;5043346;28;20525;-58
2022/10/04 12:38:36;;;;;;;8.45;3.55;;;20.50;99.90;;;;;;5046608;28;20545;-57
2022/10/04 12:41:30;;;;;;;8.85;2.85;;;20.60;99.90;;;;;;5042442;28;20021;-58
2022/10/04 12:44:39;;;;;;;4.32;2.45;;;20.90;99.90;;;;;;5039311;28;20390;-58
2022/10/04 12:47:47;;;;;;;9.05;2.83;;;21.10;99.90;;;;;;5046701;28;20037;-59
2022/10/04 12:50:46;;;;;;;5.13;2.90;;;21.10;99.90;;;;;;5034998;28;20037;-58
2022/10/04 12:53:30;;;;;;;5.07;2.65;;;21.20;99.90;;;;;;5041077;28;20036;-59
2022/10/04 12:56:19;;;;;;;6.68;2.90;;;21.40;99.90;;;;;;5042446;28;20554;-59
2022/10/04 12:59:06;;;;;;;11.98;3.03;;;21.30;99.90;;;;;;5042382;28;20491;-59
2022/10/04 13:01:55;;;;;;;8.13;2.55;;;21.20;99.90;;;;;;5050485;28;20096;-58
2022/10/04 13:04:31;;;;;;;6.72;2.58;;;21.40;99.90;;;;;;5050725;28;20021;-57
2022/10/04 13:07:13;;;;;;;7.25;3.00;;;21.30;99.90;;;;;;5052683;28;20410;-57
2022/10/04 13:10:49;;;;;;;7.90;2.63;;;21.70;99.90;;;;;;5048500;28;20020;-56
2022/10/04 13:13:29;;;;;;;5.45;2.92;;;21.70;99.90;;;;;;4957239;28;20031;-56
2022/10/04 13:16:37;;;;;;;14.35;2.85;;;21.70;99.90;;;;;;4990120;28;20026;-57
2022/10/04 13:19:21;;;;;;;11.75;2.53;;;21.90;99.90;;;;;;5040072;28;20413;-59
2022/10/04 13:22:06;;;;;;;7.13;2.42;;;22.00;99.90;;;;;;5042599;28;20036;-58
2022/10/04 13:25:15;;;;;;;12.98;2.75;;;22.20;99.90;;;;;;5048843;28;20379;-58
2022/10/04 13:28:03;;;;;;;8.25;3.03;;;22.20;99.90;;;;;;5047191;28;20025;-58
2022/10/04 13:30:32;;;;;;;11.60;2.97;;;22.10;99.90;;;;;;5049244;28;20110;-59
2022/10/04 13:33:23;;;;;;;7.30;2.88;;;21.90;99.90;;;;;;5044998;28;20066;-58
2022/10/04 13:36:10;;;;;;;11.85;2.92;;;21.70;99.90;;;;;;5039318;28;20107;-58
2022/10/04 13:39:13;;;;;;;10.93;2.40;;;21.30;99.90;;;;;;5047585;28;20040;-58
2022/10/04 13:42:17;;;;;;;10.73;3.22;;;21.80;99.90;;;;;;5041948;28;20028;-58
2022/10/04 13:45:04;;;;;;;8.02;2.33;;;22.20;99.90;;;;;;5047725;28;20490;-59
2022/10/04 13:47:41;;;;;;;6.05;2.60;;;22.20;99.90;;;;;;5046126;28;20065;-59
2022/10/04 13:50:23;;;;;;;13.35;3.08;;;22.20;99.90;;;;;;5046378;28;20031;-58
2022/10/04 13:56:38;;;;;;;6.63;2.55;;;21.70;99.90;;;;;;5045869;28;20170;-60
2022/10/04 13:59:23;;;;;;;7.67;2.43;;;21.30;99.90;;;;;;5045531;28;20074;-60
2022/10/04 14:02:18;;;;;;;5.70;1.90;;;21.20;99.90;;;;;;5047946;28;20140;-61
2022/10/04 14:05:08;;;;;;;4.83;2.50;;;21.30;99.90;;;;;;5046897;28;20066;-59